sensor_id;sensor_type;location;lat;lon;timestamp;temperature;humidity
78520;SHT31;67818;51.986;5.648;2023-03-01T08:20:25;9.9;37.3
78520;SHT31;67818;51.986;5.648;2023-03-01T08:22:55;9.6;37.3
78520;SHT31;67818;51.986;5.648;2023-03-01T08:25:26;9.5;37.8
78520;SHT31;67818;51.986;5.648;2023-03-01T08:30:24;9.6;37.4
78520;SHT31;67818;51.986;5.648;2023-03-01T08:32:54;9.7;37.3
78520;SHT31;67818;51.986;5.648;2023-03-01T08:35:24;9.6;36.9
78520;SHT31;67818;51.986;5.648;2023-03-01T08:37:54;9.4;37.3
78520;SHT31;67818;51.986;5.648;2023-03-01T08:40:24;9.3;37.5
78520;SHT31;67818;51.986;5.648;2023-03-01T08:42:53;9.2;37.8
78520;SHT31;67818;51.986;5.648;2023-03-01T08:45:26;8.9;37.5
78520;SHT31;67818;51.986;5.648;2023-03-01T08:47:57;8.7;38.8
78520;SHT31;67818;51.986;5.648;2023-03-01T08:50:29;8.6;39.5
78520;SHT31;67818;51.986;5.648;2023-03-01T08:52:58;8.6;39.2
78520;SHT31;67818;51.986;5.648;2023-03-01T08:55:28;8.6;39.7
78520;SHT31;67818;51.986;5.648;2023-03-01T08:57:58;8.6;39.4
78520;SHT31;67818;51.986;5.648;2023-03-01T09:00:27;8.5;39.8
78520;SHT31;67818;51.986;5.648;2023-03-01T09:02:57;8.5;39.0
78520;SHT31;67818;51.986;5.648;2023-03-01T09:05:26;8.4;39.5
78520;SHT31;67818;51.986;5.648;2023-03-01T09:07:57;8.5;39.5
78520;SHT31;67818;51.986;5.648;2023-03-01T09:10:26;8.5;39.5
78520;SHT31;67818;51.986;5.648;2023-03-01T09:12:57;8.7;38.6
78520;SHT31;67818;51.986;5.648;2023-03-01T09:15:29;8.8;39.0
78520;SHT31;67818;51.986;5.648;2023-03-01T09:17:59;8.9;39.6
78520;SHT31;67818;51.986;5.648;2023-03-01T09:20:30;9.0;38.5
78520;SHT31;67818;51.986;5.648;2023-03-01T09:23:00;9.1;38.0
78520;SHT31;67818;51.986;5.648;2023-03-01T09:25:30;9.3;38.2
78520;SHT31;67818;51.986;5.648;2023-03-01T09:27:59;9.4;37.1
78520;SHT31;67818;51.986;5.648;2023-03-01T09:30:30;9.5;37.2
78520;SHT31;67818;51.986;5.648;2023-03-01T09:32:59;9.4;36.2
78520;SHT31;67818;51.986;5.648;2023-03-01T09:35:32;9.2;37.2
78520;SHT31;67818;51.986;5.648;2023-03-01T09:38:01;8.8;37.7
78520;SHT31;67818;51.986;5.648;2023-03-01T09:40:31;8.6;39.0
78520;SHT31;67818;51.986;5.648;2023-03-01T09:43:08;8.6;38.6
78520;SHT31;67818;51.986;5.648;2023-03-01T09:45:46;8.6;38.7
78520;SHT31;67818;51.986;5.648;2023-03-01T09:48:19;8.6;38.0
78520;SHT31;67818;51.986;5.648;2023-03-01T09:50:51;8.6;37.6
78520;SHT31;67818;51.986;5.648;2023-03-01T09:53:25;8.7;38.0
78520;SHT31;67818;51.986;5.648;2023-03-01T09:56:01;8.8;37.3
78520;SHT31;67818;51.986;5.648;2023-03-01T09:58:39;9.0;36.3
78520;SHT31;67818;51.986;5.648;2023-03-01T10:01:35;9.2;35.9
78520;SHT31;67818;51.986;5.648;2023-03-01T10:04:26;9.4;35.6
78520;SHT31;67818;51.986;5.648;2023-03-01T10:07:11;9.8;34.8
78520;SHT31;67818;51.986;5.648;2023-03-01T10:09:45;9.9;34.2
78520;SHT31;67818;51.986;5.648;2023-03-01T10:12:20;10.0;32.8
78520;SHT31;67818;51.986;5.648;2023-03-01T10:15:00;10.0;32.8
78520;SHT31;67818;51.986;5.648;2023-03-01T10:20:17;10.7;31.7
78520;SHT31;67818;51.986;5.648;2023-03-01T10:22:49;10.8;30.3
78520;SHT31;67818;51.986;5.648;2023-03-01T10:25:29;10.6;30.6
78520;SHT31;67818;51.986;5.648;2023-03-01T10:28:05;10.1;31.6
78520;SHT31;67818;51.986;5.648;2023-03-01T10:30:39;9.8;32.3
78520;SHT31;67818;51.986;5.648;2023-03-01T10:33:19;9.7;32.7
78520;SHT31;67818;51.986;5.648;2023-03-01T10:35:51;9.7;32.7
78520;SHT31;67818;51.986;5.648;2023-03-01T10:38:22;9.8;32.6
78520;SHT31;67818;51.986;5.648;2023-03-01T10:40:54;9.9;32.3
78520;SHT31;67818;51.986;5.648;2023-03-01T10:43:43;10.9;30.8
78520;SHT31;67818;51.986;5.648;2023-03-01T10:46:01;10.9;30.7
78520;SHT31;67818;51.986;5.648;2023-03-01T10:48:31;10.5;32.1
78520;SHT31;67818;51.986;5.648;2023-03-01T10:51:07;10.4;32.2
78520;SHT31;67818;51.986;5.648;2023-03-01T10:53:41;10.4;33.1
78520;SHT31;67818;51.986;5.648;2023-03-01T10:56:13;10.5;32.7
78520;SHT31;67818;51.986;5.648;2023-03-01T10:58:58;10.7;31.2
78520;SHT31;67818;51.986;5.648;2023-03-01T11:01:31;10.7;30.9
78520;SHT31;67818;51.986;5.648;2023-03-01T11:04:12;10.8;30.9
78520;SHT31;67818;51.986;5.648;2023-03-01T11:06:43;10.9;30.6
78520;SHT31;67818;51.986;5.648;2023-03-01T11:09:19;10.9;30.9
78520;SHT31;67818;51.986;5.648;2023-03-01T11:11:54;11.0;31.5
78520;SHT31;67818;51.986;5.648;2023-03-01T11:14:26;11.0;31.2
78520;SHT31;67818;51.986;5.648;2023-03-01T11:17:02;11.1;31.3
78520;SHT31;67818;51.986;5.648;2023-03-01T11:19:33;11.2;31.6
78520;SHT31;67818;51.986;5.648;2023-03-01T11:22:12;11.3;31.0
78520;SHT31;67818;51.986;5.648;2023-03-01T11:24:44;11.5;30.9
78520;SHT31;67818;51.986;5.648;2023-03-01T11:27:21;11.5;30.0
78520;SHT31;67818;51.986;5.648;2023-03-01T11:29:57;11.6;29.8
78520;SHT31;67818;51.986;5.648;2023-03-01T11:32:35;11.6;30.8
78520;SHT31;67818;51.986;5.648;2023-03-01T11:35:16;11.7;29.1
78520;SHT31;67818;51.986;5.648;2023-03-01T11:39:47;11.9;28.4
78520;SHT31;67818;51.986;5.648;2023-03-01T11:42:23;12.0;27.9
78520;SHT31;67818;51.986;5.648;2023-03-01T11:44:55;11.9;28.4
78520;SHT31;67818;51.986;5.648;2023-03-01T11:47:44;11.9;28.4
78520;SHT31;67818;51.986;5.648;2023-03-01T11:50:28;11.9;28.1
78520;SHT31;67818;51.986;5.648;2023-03-01T11:53:15;11.8;28.3
78520;SHT31;67818;51.986;5.648;2023-03-01T11:55:58;11.8;28.2
78520;SHT31;67818;51.986;5.648;2023-03-01T11:58:54;11.7;29.3
78520;SHT31;67818;51.986;5.648;2023-03-01T12:01:33;11.6;29.0
78520;SHT31;67818;51.986;5.648;2023-03-01T12:08:13;11.4;30.7
78520;SHT31;67818;51.986;5.648;2023-03-01T12:10:52;11.4;31.9
78520;SHT31;67818;51.986;5.648;2023-03-01T12:13:42;11.5;30.9
78520;SHT31;67818;51.986;5.648;2023-03-01T12:16:21;11.7;31.6
78520;SHT31;67818;51.986;5.648;2023-03-01T12:19:01;12.0;30.7
78520;SHT31;67818;51.986;5.648;2023-03-01T12:21:53;12.2;29.3
78520;SHT31;67818;51.986;5.648;2023-03-01T12:24:46;12.3;29.1
78520;SHT31;67818;51.986;5.648;2023-03-01T12:27:34;12.5;29.1
78520;SHT31;67818;51.986;5.648;2023-03-01T12:30:20;12.5;29.3
78520;SHT31;67818;51.986;5.648;2023-03-01T12:33:05;12.6;29.1
78520;SHT31;67818;51.986;5.648;2023-03-01T12:36:31;12.6;28.5
78520;SHT31;67818;51.986;5.648;2023-03-01T12:39:15;12.6;30.0
78520;SHT31;67818;51.986;5.648;2023-03-01T12:41:54;12.6;28.7
78520;SHT31;67818;51.986;5.648;2023-03-01T12:44:42;12.6;29.2
78520;SHT31;67818;51.986;5.648;2023-03-01T12:47:30;12.6;28.8
78520;SHT31;67818;51.986;5.648;2023-03-01T12:50:14;12.6;29.9
78520;SHT31;67818;51.986;5.648;2023-03-01T12:52:52;12.6;28.8
78520;SHT31;67818;51.986;5.648;2023-03-01T12:55:31;12.7;28.9
78520;SHT31;67818;51.986;5.648;2023-03-01T12:58:13;12.7;27.6
78520;SHT31;67818;51.986;5.648;2023-03-01T13:01:05;12.6;27.8
78520;SHT31;67818;51.986;5.648;2023-03-01T13:04:02;12.4;28.9
78520;SHT31;67818;51.986;5.648;2023-03-01T13:06:41;12.3;28.1
78520;SHT31;67818;51.986;5.648;2023-03-01T13:09:22;12.3;28.3
78520;SHT31;67818;51.986;5.648;2023-03-01T13:11:55;12.1;29.6
78520;SHT31;67818;51.986;5.648;2023-03-01T13:14:46;12.0;30.0
78520;SHT31;67818;51.986;5.648;2023-03-01T13:19:30;11.9;29.5
78520;SHT31;67818;51.986;5.648;2023-03-01T13:22:27;11.8;30.0
78520;SHT31;67818;51.986;5.648;2023-03-01T13:25:31;11.7;30.7
78520;SHT31;67818;51.986;5.648;2023-03-01T13:28:36;11.6;30.2
78520;SHT31;67818;51.986;5.648;2023-03-01T13:31:11;11.6;31.0
78520;SHT31;67818;51.986;5.648;2023-03-01T13:33:46;11.6;30.4
78520;SHT31;67818;51.986;5.648;2023-03-01T13:36:47;11.6;30.8
78520;SHT31;67818;51.986;5.648;2023-03-01T13:39:33;11.5;30.1
78520;SHT31;67818;51.986;5.648;2023-03-01T13:42:35;11.5;30.1
78520;SHT31;67818;51.986;5.648;2023-03-01T13:45:17;11.4;30.1
78520;SHT31;67818;51.986;5.648;2023-03-01T13:47:53;11.4;29.7
78520;SHT31;67818;51.986;5.648;2023-03-01T13:50:31;11.2;30.2
78520;SHT31;67818;51.986;5.648;2023-03-01T13:53:06;11.1;30.0
78520;SHT31;67818;51.986;5.648;2023-03-01T13:55:42;11.1;30.9
78520;SHT31;67818;51.986;5.648;2023-03-01T13:58:22;11.1;32.0
78520;SHT31;67818;51.986;5.648;2023-03-01T14:01:00;11.1;30.7
78520;SHT31;67818;51.986;5.648;2023-03-01T14:03:32;11.1;30.8
78520;SHT31;67818;51.986;5.648;2023-03-01T14:10:31;11.6;29.4
78520;SHT31;67818;51.986;5.648;2023-03-01T14:13:20;11.5;30.0
78520;SHT31;67818;51.986;5.648;2023-03-01T14:16:08;11.5;29.7
78520;SHT31;67818;51.986;5.648;2023-03-01T14:18:50;11.6;29.5
78520;SHT31;67818;51.986;5.648;2023-03-01T14:21:17;11.4;29.5
78520;SHT31;67818;51.986;5.648;2023-03-01T14:23:48;11.3;29.5
78520;SHT31;67818;51.986;5.648;2023-03-01T14:26:23;11.3;29.6
78520;SHT31;67818;51.986;5.648;2023-03-01T14:28:53;11.3;30.1
78520;SHT31;67818;51.986;5.648;2023-03-01T14:31:40;11.3;29.9
78520;SHT31;67818;51.986;5.648;2023-03-01T14:34:19;11.2;29.3
78520;SHT31;67818;51.986;5.648;2023-03-01T14:38:27;11.0;30.2
78520;SHT31;67818;51.986;5.648;2023-03-01T14:40:59;10.9;30.4
78520;SHT31;67818;51.986;5.648;2023-03-01T14:43:31;10.9;29.5
78520;SHT31;67818;51.986;5.648;2023-03-01T14:46:01;10.9;29.4
78520;SHT31;67818;51.986;5.648;2023-03-01T14:48:34;10.8;29.9
78520;SHT31;67818;51.986;5.648;2023-03-01T14:51:05;10.6;30.6
78520;SHT31;67818;51.986;5.648;2023-03-01T14:53:38;10.5;30.8
78520;SHT31;67818;51.986;5.648;2023-03-01T14:56:24;10.0;31.9
78520;SHT31;67818;51.986;5.648;2023-03-01T14:58:58;9.8;32.2
78520;SHT31;67818;51.986;5.648;2023-03-01T15:01:28;9.8;31.7
78520;SHT31;67818;51.986;5.648;2023-03-01T15:03:59;9.7;31.9
78520;SHT31;67818;51.986;5.648;2023-03-01T15:06:30;9.6;31.8
78520;SHT31;67818;51.986;5.648;2023-03-01T15:08:59;9.6;32.5
78520;SHT31;67818;51.986;5.648;2023-03-01T15:11:33;9.6;31.7
78520;SHT31;67818;51.986;5.648;2023-03-01T15:14:28;9.6;31.7
78520;SHT31;67818;51.986;5.648;2023-03-01T15:16:58;9.6;32.0
78520;SHT31;67818;51.986;5.648;2023-03-01T15:19:28;9.6;31.9
78520;SHT31;67818;51.986;5.648;2023-03-01T15:21:58;9.5;31.8
78520;SHT31;67818;51.986;5.648;2023-03-01T15:24:32;9.4;31.5
78520;SHT31;67818;51.986;5.648;2023-03-01T15:27:03;9.3;31.9
78520;SHT31;67818;51.986;5.648;2023-03-01T15:29:35;9.3;32.5
78520;SHT31;67818;51.986;5.648;2023-03-01T15:32:25;9.2;32.0
78520;SHT31;67818;51.986;5.648;2023-03-01T15:34:55;9.1;31.6
78520;SHT31;67818;51.986;5.648;2023-03-01T15:37:45;9.1;32.2
78520;SHT31;67818;51.986;5.648;2023-03-01T15:40:23;9.0;32.1
78520;SHT31;67818;51.986;5.648;2023-03-01T15:42:58;8.9;32.5
78520;SHT31;67818;51.986;5.648;2023-03-01T15:45:30;8.9;32.6
78520;SHT31;67818;51.986;5.648;2023-03-01T15:48:03;8.8;33.2
78520;SHT31;67818;51.986;5.648;2023-03-01T15:50:35;8.8;33.3
78520;SHT31;67818;51.986;5.648;2023-03-01T15:53:12;8.8;33.4
78520;SHT31;67818;51.986;5.648;2023-03-01T15:55:43;8.7;32.1
78520;SHT31;67818;51.986;5.648;2023-03-01T15:58:17;8.7;32.4
78520;SHT31;67818;51.986;5.648;2023-03-01T16:00:49;8.6;32.6
78520;SHT31;67818;51.986;5.648;2023-03-01T16:03:19;8.7;32.6
78520;SHT31;67818;51.986;5.648;2023-03-01T16:05:50;8.7;33.1
78520;SHT31;67818;51.986;5.648;2023-03-01T16:08:21;8.7;33.5
78520;SHT31;67818;51.986;5.648;2023-03-01T16:10:51;8.7;33.8
78520;SHT31;67818;51.986;5.648;2023-03-01T16:13:22;8.8;33.3
78520;SHT31;67818;51.986;5.648;2023-03-01T16:15:54;8.8;32.9
78520;SHT31;67818;51.986;5.648;2023-03-01T16:18:23;8.8;32.3
78520;SHT31;67818;51.986;5.648;2023-03-01T16:20:53;8.8;32.6
78520;SHT31;67818;51.986;5.648;2023-03-01T16:23:23;8.7;32.5
78520;SHT31;67818;51.986;5.648;2023-03-01T16:25:53;8.7;32.7
78520;SHT31;67818;51.986;5.648;2023-03-01T16:28:22;8.6;32.7
78520;SHT31;67818;51.986;5.648;2023-03-01T16:32:57;8.5;33.4
78520;SHT31;67818;51.986;5.648;2023-03-01T16:38:45;8.5;33.8
78520;SHT31;67818;51.986;5.648;2023-03-01T16:41:17;8.4;34.2
78520;SHT31;67818;51.986;5.648;2023-03-01T16:43:50;8.4;34.7
78520;SHT31;67818;51.986;5.648;2023-03-01T16:47:35;8.3;34.9
78520;SHT31;67818;51.986;5.648;2023-03-01T16:50:06;8.3;35.1
78520;SHT31;67818;51.986;5.648;2023-03-01T16:52:37;8.3;35.0
78520;SHT31;67818;51.986;5.648;2023-03-01T16:55:36;8.3;35.0
78520;SHT31;67818;51.986;5.648;2023-03-01T16:58:30;8.4;34.9
78520;SHT31;67818;51.986;5.648;2023-03-01T17:01:07;8.3;35.4
78520;SHT31;67818;51.986;5.648;2023-03-01T17:05:51;8.1;36.0
78520;SHT31;67818;51.986;5.648;2023-03-01T17:08:23;8.1;36.5
78520;SHT31;67818;51.986;5.648;2023-03-01T17:10:55;8.0;36.9
78520;SHT31;67818;51.986;5.648;2023-03-01T17:20:19;7.6;39.0
78520;SHT31;67818;51.986;5.648;2023-03-01T17:22:51;7.6;39.4
78520;SHT31;67818;51.986;5.648;2023-03-01T17:25:21;7.5;39.7
78520;SHT31;67818;51.986;5.648;2023-03-01T17:27:53;7.4;39.8
78520;SHT31;67818;51.986;5.648;2023-03-01T17:30:23;7.4;40.0
78520;SHT31;67818;51.986;5.648;2023-03-01T17:32:53;7.3;40.0
78520;SHT31;67818;51.986;5.648;2023-03-01T17:35:23;7.1;40.6
78520;SHT31;67818;51.986;5.648;2023-03-01T17:38:18;7.0;40.7
78520;SHT31;67818;51.986;5.648;2023-03-01T17:42:59;6.9;41.3
78520;SHT31;67818;51.986;5.648;2023-03-01T21:04:54;5.2;45.6
78520;SHT31;67818;51.986;5.648;2023-03-01T21:07:24;4.9;46.6
78520;SHT31;67818;51.986;5.648;2023-03-01T21:09:54;4.7;47.0
78520;SHT31;67818;51.986;5.648;2023-03-01T21:12:26;4.6;47.2
78520;SHT31;67818;51.986;5.648;2023-03-01T21:14:55;4.5;47.7
78520;SHT31;67818;51.986;5.648;2023-03-01T21:17:25;4.4;48.0
78520;SHT31;67818;51.986;5.648;2023-03-01T21:19:55;4.3;48.6
78520;SHT31;67818;51.986;5.648;2023-03-01T21:22:24;4.2;48.9
78520;SHT31;67818;51.986;5.648;2023-03-01T21:24:55;4.1;49.5
78520;SHT31;67818;51.986;5.648;2023-03-01T21:27:27;4.0;49.9
78520;SHT31;67818;51.986;5.648;2023-03-01T21:29:56;3.9;50.5
78520;SHT31;67818;51.986;5.648;2023-03-01T21:32:28;3.9;50.7
78520;SHT31;67818;51.986;5.648;2023-03-01T21:34:58;3.8;51.1
78520;SHT31;67818;51.986;5.648;2023-03-01T21:37:27;3.8;51.3
78520;SHT31;67818;51.986;5.648;2023-03-01T21:39:57;3.7;51.6
78520;SHT31;67818;51.986;5.648;2023-03-01T21:42:28;3.7;51.7
78520;SHT31;67818;51.986;5.648;2023-03-01T21:45:01;3.6;51.9
78520;SHT31;67818;51.986;5.648;2023-03-01T21:47:31;3.6;52.0
78520;SHT31;67818;51.986;5.648;2023-03-01T21:50:03;3.6;52.1
78520;SHT31;67818;51.986;5.648;2023-03-01T21:52:35;3.6;52.4
78520;SHT31;67818;51.986;5.648;2023-03-01T21:55:05;3.6;52.5
78520;SHT31;67818;51.986;5.648;2023-03-01T21:57:35;3.6;52.5
78520;SHT31;67818;51.986;5.648;2023-03-01T22:00:15;3.6;53.0
78520;SHT31;67818;51.986;5.648;2023-03-01T22:02:50;3.7;52.9
78520;SHT31;67818;51.986;5.648;2023-03-01T22:05:24;3.7;52.2
78520;SHT31;67818;51.986;5.648;2023-03-01T22:07:54;3.7;52.1
78520;SHT31;67818;51.986;5.648;2023-03-01T22:10:24;3.7;52.1
78520;SHT31;67818;51.986;5.648;2023-03-01T22:12:55;3.9;51.4
78520;SHT31;67818;51.986;5.648;2023-03-01T22:15:26;3.9;51.6
78520;SHT31;67818;51.986;5.648;2023-03-01T22:17:56;3.9;51.7
78520;SHT31;67818;51.986;5.648;2023-03-01T22:20:28;3.9;51.7
78520;SHT31;67818;51.986;5.648;2023-03-01T22:22:57;3.9;51.7
78520;SHT31;67818;51.986;5.648;2023-03-01T22:25:28;3.9;52.0
78520;SHT31;67818;51.986;5.648;2023-03-01T22:27:58;3.8;52.1
78520;SHT31;67818;51.986;5.648;2023-03-01T22:30:28;3.8;52.2
78520;SHT31;67818;51.986;5.648;2023-03-01T22:33:00;3.7;52.3
78520;SHT31;67818;51.986;5.648;2023-03-01T22:35:30;3.7;52.6
78520;SHT31;67818;51.986;5.648;2023-03-01T22:40:30;3.5;53.3
78520;SHT31;67818;51.986;5.648;2023-03-01T22:43:00;3.5;53.8
78520;SHT31;67818;51.986;5.648;2023-03-01T22:45:31;3.5;53.7
78520;SHT31;67818;51.986;5.648;2023-03-01T22:48:01;3.5;54.0
78520;SHT31;67818;51.986;5.648;2023-03-01T22:50:33;3.4;54.3
78520;SHT31;67818;51.986;5.648;2023-03-01T22:53:03;3.4;54.6
78520;SHT31;67818;51.986;5.648;2023-03-01T22:55:32;3.3;54.8
78520;SHT31;67818;51.986;5.648;2023-03-01T22:58:02;3.3;55.1
78520;SHT31;67818;51.986;5.648;2023-03-01T23:00:32;3.3;55.7
78520;SHT31;67818;51.986;5.648;2023-03-01T23:03:02;3.2;56.1
78520;SHT31;67818;51.986;5.648;2023-03-01T23:05:32;3.2;56.5
78520;SHT31;67818;51.986;5.648;2023-03-01T23:08:02;3.2;56.8
78520;SHT31;67818;51.986;5.648;2023-03-01T23:10:31;3.1;57.3
78520;SHT31;67818;51.986;5.648;2023-03-01T23:13:01;3.1;57.8
78520;SHT31;67818;51.986;5.648;2023-03-01T23:15:30;3.1;58.0
78520;SHT31;67818;51.986;5.648;2023-03-01T23:18:00;3.1;58.4
78520;SHT31;67818;51.986;5.648;2023-03-01T23:20:29;3.1;58.8
78520;SHT31;67818;51.986;5.648;2023-03-01T23:23:05;3.1;59.3
78520;SHT31;67818;51.986;5.648;2023-03-01T23:25:35;3.1;59.4
78520;SHT31;67818;51.986;5.648;2023-03-01T23:28:05;3.0;60.0
78520;SHT31;67818;51.986;5.648;2023-03-01T23:30:35;3.0;60.4
78520;SHT31;67818;51.986;5.648;2023-03-01T23:33:05;3.0;61.1
78520;SHT31;67818;51.986;5.648;2023-03-01T23:35:37;3.0;61.6
78520;SHT31;67818;51.986;5.648;2023-03-01T23:38:07;2.9;62.5
78520;SHT31;67818;51.986;5.648;2023-03-01T23:40:39;2.9;62.7
78520;SHT31;67818;51.986;5.648;2023-03-01T23:43:08;2.9;63.8
78520;SHT31;67818;51.986;5.648;2023-03-01T23:45:39;2.9;64.4
78520;SHT31;67818;51.986;5.648;2023-03-01T23:48:12;2.8;65.1
78520;SHT31;67818;51.986;5.648;2023-03-01T23:50:43;3.0;64.7
78520;SHT31;67818;51.986;5.648;2023-03-01T23:53:16;3.1;64.7
78520;SHT31;67818;51.986;5.648;2023-03-01T23:55:54;3.1;65.6
78520;SHT31;67818;51.986;5.648;2023-03-01T23:58:24;3.1;65.7
